sensor_id;sensor_type;location;lat;lon;timestamp;pressure;altitude;pressure_sealevel;temperature;humidity
54588;BME280;40484;50.198;19.576;2023-05-03T00:08:47;102333.40;;;16.62;52.21
54588;BME280;40484;50.198;19.576;2023-05-03T00:13:49;102325.87;;;16.51;52.34
54588;BME280;40484;50.198;19.576;2023-05-03T00:18:50;102325.44;;;16.24;52.92
54588;BME280;40484;50.198;19.576;2023-05-03T00:23:52;102319.57;;;16.24;52.77
54588;BME280;40484;50.198;19.576;2023-05-03T00:28:53;102322.07;;;16.22;52.76
54588;BME280;40484;50.198;19.576;2023-05-03T00:33:55;102319.98;;;16.21;52.80
54588;BME280;40484;50.198;19.576;2023-05-03T00:38:56;102315.16;;;16.19;52.89
54588;BME280;40484;50.198;19.576;2023-05-03T00:43:58;102314.75;;;16.24;52.79
54588;BME280;40484;50.198;19.576;2023-05-03T00:49:00;102321.45;;;16.35;52.46
54588;BME280;40484;50.198;19.576;2023-05-03T00:54:01;102322.51;;;16.51;52.13
54588;BME280;40484;50.198;19.576;2023-05-03T00:59:04;102327.73;;;16.62;51.86
54588;BME280;40484;50.198;19.576;2023-05-03T01:04:06;102329.21;;;16.76;51.49
54588;BME280;40484;50.198;19.576;2023-05-03T01:09:14;102330.05;;;16.82;51.22
54588;BME280;40484;50.198;19.576;2023-05-03T01:14:36;102331.27;;;16.90;51.04
54588;BME280;40484;50.198;19.576;2023-05-03T01:19:46;102335.23;;;17.08;50.69
54588;BME280;40484;50.198;19.576;2023-05-03T01:25:13;102327.67;;;17.05;50.44
54588;BME280;40484;50.198;19.576;2023-05-03T01:30:16;102328.50;;;17.05;50.51
54588;BME280;40484;50.198;19.576;2023-05-03T01:35:40;102336.28;;;17.08;50.39
54588;BME280;40484;50.198;19.576;2023-05-03T01:40:50;102330.38;;;17.11;50.35
54588;BME280;40484;50.198;19.576;2023-05-03T01:45:51;102327.18;;;17.24;50.08
54588;BME280;40484;50.198;19.576;2023-05-03T01:50:53;102328.62;;;17.35;49.94
54588;BME280;40484;50.198;19.576;2023-05-03T01:55:54;102338.29;;;17.36;49.88
54588;BME280;40484;50.198;19.576;2023-05-03T02:00:56;102335.98;;;17.35;49.82
54588;BME280;40484;50.198;19.576;2023-05-03T02:05:57;102337.01;;;17.37;49.87
54588;BME280;40484;50.198;19.576;2023-05-03T02:10:59;102333.24;;;17.38;49.87
54588;BME280;40484;50.198;19.576;2023-05-03T02:16:00;102332.16;;;17.40;49.90
54588;BME280;40484;50.198;19.576;2023-05-03T02:21:03;102333.43;;;17.37;49.87
54588;BME280;40484;50.198;19.576;2023-05-03T02:26:05;102337.45;;;17.35;49.81
54588;BME280;40484;50.198;19.576;2023-05-03T02:31:06;102336.23;;;17.25;49.92
54588;BME280;40484;50.198;19.576;2023-05-03T02:36:08;102329.12;;;17.19;50.06
54588;BME280;40484;50.198;19.576;2023-05-03T02:41:09;102333.71;;;17.26;50.01
54588;BME280;40484;50.198;19.576;2023-05-03T02:46:35;102333.03;;;17.33;49.85
54588;BME280;40484;50.198;19.576;2023-05-03T02:51:37;102336.23;;;17.25;49.92
54588;BME280;40484;50.198;19.576;2023-05-03T02:56:38;102337.11;;;17.13;50.07
54588;BME280;40484;50.198;19.576;2023-05-03T03:01:40;102337.62;;;16.85;50.53
54588;BME280;40484;50.198;19.576;2023-05-03T03:06:42;102342.23;;;16.66;50.99
54588;BME280;40484;50.198;19.576;2023-05-03T03:11:43;102339.27;;;16.72;51.04
54588;BME280;40484;50.198;19.576;2023-05-03T03:16:45;102347.68;;;16.55;51.34
54588;BME280;40484;50.198;19.576;2023-05-03T03:21:46;102345.38;;;16.39;51.82
54588;BME280;40484;50.198;19.576;2023-05-03T03:26:48;102353.13;;;16.37;51.98
54588;BME280;40484;50.198;19.576;2023-05-03T03:31:50;102346.64;;;16.40;52.09
54588;BME280;40484;50.198;19.576;2023-05-03T03:36:51;102345.15;;;16.50;52.03
54588;BME280;40484;50.198;19.576;2023-05-03T03:41:53;102355.02;;;16.64;51.89
54588;BME280;40484;50.198;19.576;2023-05-03T03:46:55;102357.16;;;16.76;51.76
54588;BME280;40484;50.198;19.576;2023-05-03T03:51:56;102357.34;;;16.45;52.04
54588;BME280;40484;50.198;19.576;2023-05-03T03:56:58;102365.30;;;16.20;52.62
54588;BME280;40484;50.198;19.576;2023-05-03T04:01:59;102364.64;;;15.99;53.05
54588;BME280;40484;50.198;19.576;2023-05-03T04:07:01;102368.60;;;15.89;53.52
54588;BME280;40484;50.198;19.576;2023-05-03T04:12:03;102373.61;;;15.80;53.70
54588;BME280;40484;50.198;19.576;2023-05-03T04:17:04;102372.10;;;15.67;54.13
54588;BME280;40484;50.198;19.576;2023-05-03T04:22:06;102379.43;;;15.69;54.14
54588;BME280;40484;50.198;19.576;2023-05-03T04:27:08;102394.54;;;15.71;54.24
54588;BME280;40484;50.198;19.576;2023-05-03T04:32:09;102399.09;;;15.65;54.55
54588;BME280;40484;50.198;19.576;2023-05-03T04:37:37;102396.52;;;16.02;54.14
54588;BME280;40484;50.198;19.576;2023-05-03T04:42:39;102403.02;;;16.03;54.00
54588;BME280;40484;50.198;19.576;2023-05-03T04:47:42;102407.95;;;15.72;54.75
54588;BME280;40484;50.198;19.576;2023-05-03T04:52:43;102409.46;;;15.83;54.92
54588;BME280;40484;50.198;19.576;2023-05-03T04:57:45;102418.01;;;15.68;55.14
54588;BME280;40484;50.198;19.576;2023-05-03T05:02:46;102416.15;;;15.82;55.26
54588;BME280;40484;50.198;19.576;2023-05-03T05:07:48;102425.74;;;15.70;55.11
54588;BME280;40484;50.198;19.576;2023-05-03T05:12:49;102428.84;;;15.64;55.32
54588;BME280;40484;50.198;19.576;2023-05-03T05:17:51;102428.14;;;15.86;54.85
54588;BME280;40484;50.198;19.576;2023-05-03T05:22:52;102430.71;;;16.09;54.41
54588;BME280;40484;50.198;19.576;2023-05-03T05:27:54;102444.13;;;16.01;54.24
54588;BME280;40484;50.198;19.576;2023-05-03T05:32:56;102434.64;;;15.86;54.71
54588;BME280;40484;50.198;19.576;2023-05-03T05:37:57;102443.21;;;15.85;54.37
54588;BME280;40484;50.198;19.576;2023-05-03T05:42:59;102451.26;;;16.06;53.99
54588;BME280;40484;50.198;19.576;2023-05-03T05:48:00;102446.07;;;16.21;53.51
54588;BME280;40484;50.198;19.576;2023-05-03T05:53:02;102445.86;;;16.31;53.19
54588;BME280;40484;50.198;19.576;2023-05-03T05:58:03;102455.09;;;16.31;52.91
54588;BME280;40484;50.198;19.576;2023-05-03T06:03:05;102465.34;;;16.22;52.91
54588;BME280;40484;50.198;19.576;2023-05-03T06:08:07;102467.66;;;16.18;52.87
54588;BME280;40484;50.198;19.576;2023-05-03T06:13:09;102476.45;;;16.16;52.63
54588;BME280;40484;50.198;19.576;2023-05-03T06:18:10;102482.80;;;16.34;52.64
54588;BME280;40484;50.198;19.576;2023-05-03T06:23:12;102486.63;;;16.45;52.31
54588;BME280;40484;50.198;19.576;2023-05-03T06:28:37;102491.03;;;16.52;51.92
54588;BME280;40484;50.198;19.576;2023-05-03T06:33:39;102494.99;;;16.47;52.01
54588;BME280;40484;50.198;19.576;2023-05-03T06:38:41;102496.91;;;16.59;51.77
54588;BME280;40484;50.198;19.576;2023-05-03T06:43:44;102496.70;;;16.48;51.97
54588;BME280;40484;50.198;19.576;2023-05-03T06:48:45;102505.29;;;16.47;52.06
54588;BME280;40484;50.198;19.576;2023-05-03T06:53:47;102503.20;;;16.56;52.03
54588;BME280;40484;50.198;19.576;2023-05-03T06:58:49;102511.81;;;16.48;52.21
54588;BME280;40484;50.198;19.576;2023-05-03T07:03:50;102514.50;;;16.36;52.63
54588;BME280;40484;50.198;19.576;2023-05-03T07:08:52;102516.84;;;16.56;52.52
54588;BME280;40484;50.198;19.576;2023-05-03T07:13:54;102519.55;;;16.50;52.79
54588;BME280;40484;50.198;19.576;2023-05-03T07:18:55;102516.45;;;16.69;52.54
54588;BME280;40484;50.198;19.576;2023-05-03T07:23:57;102524.67;;;16.73;52.71
54588;BME280;40484;50.198;19.576;2023-05-03T07:28:58;102523.59;;;16.71;53.10
54588;BME280;40484;50.198;19.576;2023-05-03T07:34:00;102537.45;;;16.63;53.48
54588;BME280;40484;50.198;19.576;2023-05-03T07:39:01;102525.91;;;16.66;53.34
54588;BME280;40484;50.198;19.576;2023-05-03T07:44:04;102528.60;;;16.51;53.87
54588;BME280;40484;50.198;19.576;2023-05-03T07:49:06;102533.42;;;16.53;53.96
54588;BME280;40484;50.198;19.576;2023-05-03T07:54:07;102537.45;;;16.60;53.69
54588;BME280;40484;50.198;19.576;2023-05-03T07:59:09;102538.72;;;16.70;53.65
54588;BME280;40484;50.198;19.576;2023-05-03T08:04:10;102538.71;;;16.68;53.68
54588;BME280;40484;50.198;19.576;2023-05-03T08:09:12;102546.31;;;16.14;53.74
54588;BME280;40484;50.198;19.576;2023-05-03T08:14:41;102549.91;;;16.25;53.74
54588;BME280;40484;50.198;19.576;2023-05-03T08:19:43;102550.02;;;16.52;53.62
54588;BME280;40484;50.198;19.576;2023-05-03T08:24:45;102552.45;;;16.32;53.46
54588;BME280;40484;50.198;19.576;2023-05-03T08:29:46;102554.12;;;16.24;53.54
54588;BME280;40484;50.198;19.576;2023-05-03T08:34:48;102563.61;;;16.36;53.55
54588;BME280;40484;50.198;19.576;2023-05-03T08:39:50;102557.16;;;16.54;53.53
54588;BME280;40484;50.198;19.576;2023-05-03T08:44:53;102561.84;;;16.78;53.42
54588;BME280;40484;50.198;19.576;2023-05-03T08:49:55;102563.32;;;16.78;53.30
54588;BME280;40484;50.198;19.576;2023-05-03T08:54:58;102569.23;;;16.82;53.31
54588;BME280;40484;50.198;19.576;2023-05-03T08:59:59;102570.73;;;17.03;52.93
54588;BME280;40484;50.198;19.576;2023-05-03T09:05:01;102570.51;;;17.04;51.82
54588;BME280;40484;50.198;19.576;2023-05-03T09:10:16;102574.06;;;17.09;52.03
54588;BME280;40484;50.198;19.576;2023-05-03T09:15:08;102579.66;;;16.74;51.34
54588;BME280;40484;50.198;19.576;2023-05-03T09:20:11;102574.24;;;16.81;51.99
54588;BME280;40484;50.198;19.576;2023-05-03T09:25:13;102569.88;;;16.98;51.20
54588;BME280;40484;50.198;19.576;2023-05-03T09:30:18;102575.13;;;17.09;51.05
54588;BME280;40484;50.198;19.576;2023-05-03T09:35:20;102581.82;;;16.90;50.67
54588;BME280;40484;50.198;19.576;2023-05-03T09:40:21;102584.77;;;16.86;51.11
54588;BME280;40484;50.198;19.576;2023-05-03T09:45:23;102583.12;;;17.14;51.33
54588;BME280;40484;50.198;19.576;2023-05-03T09:50:25;102584.61;;;17.19;50.01
54588;BME280;40484;50.198;19.576;2023-05-03T09:55:51;102587.52;;;17.49;49.38
54588;BME280;40484;50.198;19.576;2023-05-03T10:00:53;102583.30;;;17.61;49.59
54588;BME280;40484;50.198;19.576;2023-05-03T10:05:56;102586.05;;;17.55;48.51
54588;BME280;40484;50.198;19.576;2023-05-03T10:11:07;102578.25;;;17.71;48.99
54588;BME280;40484;50.198;19.576;2023-05-03T10:16:09;102573.20;;;17.80;48.33
54588;BME280;40484;50.198;19.576;2023-05-03T10:21:17;102579.73;;;17.80;48.90
54588;BME280;40484;50.198;19.576;2023-05-03T10:26:15;102578.66;;;17.94;48.29
54588;BME280;40484;50.198;19.576;2023-05-03T10:31:47;102579.12;;;17.75;48.22
54588;BME280;40484;50.198;19.576;2023-05-03T10:36:35;102584.79;;;17.31;47.78
54588;BME280;40484;50.198;19.576;2023-05-03T10:41:37;102581.64;;;17.15;48.44
54588;BME280;40484;50.198;19.576;2023-05-03T10:46:38;102587.32;;;16.95;48.67
54588;BME280;40484;50.198;19.576;2023-05-03T10:51:40;102588.15;;;17.11;48.60
54588;BME280;40484;50.198;19.576;2023-05-03T10:56:50;102589.63;;;17.08;48.51
54588;BME280;40484;50.198;19.576;2023-05-03T11:01:52;102588.38;;;17.16;48.68
54588;BME280;40484;50.198;19.576;2023-05-03T11:06:54;102585.44;;;17.32;47.89
54588;BME280;40484;50.198;19.576;2023-05-03T11:12:22;102585.41;;;17.64;47.76
54588;BME280;40484;50.198;19.576;2023-05-03T11:17:23;102582.47;;;17.88;47.58
54588;BME280;40484;50.198;19.576;2023-05-03T11:22:25;102580.80;;;17.81;47.20
54588;BME280;40484;50.198;19.576;2023-05-03T11:27:27;102586.90;;;17.79;47.20
54588;BME280;40484;50.198;19.576;2023-05-03T11:32:29;102592.77;;;17.66;47.84
54588;BME280;40484;50.198;19.576;2023-05-03T11:37:30;102588.78;;;17.52;47.47
54588;BME280;40484;50.198;19.576;2023-05-03T11:42:32;102588.38;;;17.54;47.01
54588;BME280;40484;50.198;19.576;2023-05-03T11:47:34;102588.13;;;17.65;46.62
54588;BME280;40484;50.198;19.576;2023-05-03T11:52:37;102588.56;;;17.62;46.68
54588;BME280;40484;50.198;19.576;2023-05-03T11:57:40;102588.38;;;17.54;45.62
54588;BME280;40484;50.198;19.576;2023-05-03T12:02:46;102580.82;;;17.47;45.28
54588;BME280;40484;50.198;19.576;2023-05-03T12:07:45;102581.23;;;17.56;46.40
54588;BME280;40484;50.198;19.576;2023-05-03T12:12:55;102575.93;;;17.74;46.28
54588;BME280;40484;50.198;19.576;2023-05-03T12:17:55;102571.08;;;17.90;45.67
54588;BME280;40484;50.198;19.576;2023-05-03T12:23:01;102577.82;;;17.92;45.06
54588;BME280;40484;50.198;19.576;2023-05-03T12:28:04;102578.43;;;18.00;45.68
54588;BME280;40484;50.198;19.576;2023-05-03T12:33:07;102581.62;;;17.94;45.82
54588;BME280;40484;50.198;19.576;2023-05-03T12:38:08;102574.91;;;17.79;46.06
54588;BME280;40484;50.198;19.576;2023-05-03T12:43:10;102575.76;;;17.37;46.14
54588;BME280;40484;50.198;19.576;2023-05-03T12:48:36;102567.15;;;17.29;46.22
54588;BME280;40484;50.198;19.576;2023-05-03T12:53:37;102576.39;;;17.11;46.55
54588;BME280;40484;50.198;19.576;2023-05-03T12:58:39;102575.98;;;17.04;46.79
54588;BME280;40484;50.198;19.576;2023-05-03T13:03:42;102586.03;;;16.89;47.00
54588;BME280;40484;50.198;19.576;2023-05-03T13:08:44;102583.89;;;16.78;46.86
54588;BME280;40484;50.198;19.576;2023-05-03T13:13:45;102577.54;;;16.60;47.03
54588;BME280;40484;50.198;19.576;2023-05-03T13:18:47;102577.36;;;16.74;47.36
54588;BME280;40484;50.198;19.576;2023-05-03T13:23:48;102574.61;;;16.60;47.18
54588;BME280;40484;50.198;19.576;2023-05-03T13:28:50;102575.26;;;16.74;47.33
54588;BME280;40484;50.198;19.576;2023-05-03T13:33:52;102567.32;;;16.76;47.28
54588;BME280;40484;50.198;19.576;2023-05-03T13:38:57;102568.38;;;16.85;46.92
54588;BME280;40484;50.198;19.576;2023-05-03T13:43:59;102562.44;;;16.74;47.04
54588;BME280;40484;50.198;19.576;2023-05-03T13:49:01;102563.89;;;16.69;47.43
54588;BME280;40484;50.198;19.576;2023-05-03T13:54:04;102568.15;;;16.77;46.84
54588;BME280;40484;50.198;19.576;2023-05-03T13:59:06;102561.23;;;16.84;47.23
54588;BME280;40484;50.198;19.576;2023-05-03T14:04:09;102546.96;;;17.31;46.67
54588;BME280;40484;50.198;19.576;2023-05-03T14:09:11;102545.09;;;17.33;46.43
54588;BME280;40484;50.198;19.576;2023-05-03T14:14:12;102537.07;;;17.65;46.07
54588;BME280;40484;50.198;19.576;2023-05-03T14:19:14;102537.67;;;17.65;45.94
54588;BME280;40484;50.198;19.576;2023-05-03T14:24:17;102545.68;;;17.52;45.16
54588;BME280;40484;50.198;19.576;2023-05-03T14:29:44;102546.73;;;17.59;44.57
54588;BME280;40484;50.198;19.576;2023-05-03T14:34:46;102549.09;;;17.38;45.70
54588;BME280;40484;50.198;19.576;2023-05-03T14:39:48;102554.55;;;17.36;45.13
54588;BME280;40484;50.198;19.576;2023-05-03T14:44:49;102558.31;;;17.42;45.20
54588;BME280;40484;50.198;19.576;2023-05-03T14:49:51;102555.41;;;17.22;45.36
54588;BME280;40484;50.198;19.576;2023-05-03T14:54:52;102560.64;;;17.31;45.17
54588;BME280;40484;50.198;19.576;2023-05-03T14:59:54;102554.34;;;17.44;44.68
54588;BME280;40484;50.198;19.576;2023-05-03T15:04:56;102564.84;;;17.50;44.22
54588;BME280;40484;50.198;19.576;2023-05-03T15:10:01;102562.71;;;17.58;44.49
54588;BME280;40484;50.198;19.576;2023-05-03T15:15:08;102564.84;;;17.45;44.57
54588;BME280;40484;50.198;19.576;2023-05-03T15:20:12;102564.41;;;17.62;44.42
54588;BME280;40484;50.198;19.576;2023-05-03T15:25:15;102566.49;;;17.81;44.24
54588;BME280;40484;50.198;19.576;2023-05-03T15:30:17;102564.15;;;17.93;44.16
54588;BME280;40484;50.198;19.576;2023-05-03T15:35:18;102558.89;;;17.96;44.50
54588;BME280;40484;50.198;19.576;2023-05-03T15:40:20;102567.69;;;18.04;44.55
54588;BME280;40484;50.198;19.576;2023-05-03T15:45:22;102556.27;;;18.16;44.15
54588;BME280;40484;50.198;19.576;2023-05-03T15:50:26;102557.59;;;18.01;43.56
54588;BME280;40484;50.198;19.576;2023-05-03T15:55:27;102555.05;;;18.07;43.65
54588;BME280;40484;50.198;19.576;2023-05-03T16:00:29;102550.50;;;17.77;43.05
54588;BME280;40484;50.198;19.576;2023-05-03T16:05:56;102552.58;;;17.96;43.19
54588;BME280;40484;50.198;19.576;2023-05-03T16:10:58;102548.53;;;18.02;43.57
54588;BME280;40484;50.198;19.576;2023-05-03T16:16:00;102545.16;;;18.13;43.38
54588;BME280;40484;50.198;19.576;2023-05-03T16:21:03;102552.08;;;18.14;43.62
54588;BME280;40484;50.198;19.576;2023-05-03T16:26:14;102549.76;;;18.19;43.91
54588;BME280;40484;50.198;19.576;2023-05-03T16:31:17;102546.81;;;18.17;44.08
54588;BME280;40484;50.198;19.576;2023-05-03T16:36:18;102544.91;;;18.17;44.29
54588;BME280;40484;50.198;19.576;2023-05-03T16:41:20;102551.63;;;18.19;44.37
54588;BME280;40484;50.198;19.576;2023-05-03T16:46:21;102558.38;;;18.14;44.71
54588;BME280;40484;50.198;19.576;2023-05-03T16:51:23;102563.02;;;18.12;44.91
54588;BME280;40484;50.198;19.576;2023-05-03T16:56:24;102556.29;;;18.11;45.19
54588;BME280;40484;50.198;19.576;2023-05-03T17:01:26;102555.45;;;18.11;44.95
54588;BME280;40484;50.198;19.576;2023-05-03T17:06:28;102557.14;;;18.08;44.99
54588;BME280;40484;50.198;19.576;2023-05-03T17:11:29;102562.02;;;18.03;44.83
54588;BME280;40484;50.198;19.576;2023-05-03T17:16:31;102564.98;;;17.99;45.19
54588;BME280;40484;50.198;19.576;2023-05-03T17:21:32;102564.55;;;17.95;45.64
54588;BME280;40484;50.198;19.576;2023-05-03T17:26:34;102572.37;;;17.90;45.81
54588;BME280;40484;50.198;19.576;2023-05-03T17:31:35;102573.83;;;17.89;46.17
54588;BME280;40484;50.198;19.576;2023-05-03T17:36:37;102583.52;;;17.87;46.04
54588;BME280;40484;50.198;19.576;2023-05-03T17:41:38;102577.21;;;17.80;46.14
54588;BME280;40484;50.198;19.576;2023-05-03T17:47:04;102579.32;;;17.69;46.40
54588;BME280;40484;50.198;19.576;2023-05-03T17:52:06;102576.58;;;17.70;46.30
54588;BME280;40484;50.198;19.576;2023-05-03T17:57:08;102576.60;;;17.62;46.49
54588;BME280;40484;50.198;19.576;2023-05-03T18:02:09;102581.64;;;17.42;46.64
54588;BME280;40484;50.198;19.576;2023-05-03T18:07:11;102589.63;;;17.36;46.64
54588;BME280;40484;50.198;19.576;2023-05-03T18:12:12;102586.07;;;17.32;46.67
54588;BME280;40484;50.198;19.576;2023-05-03T18:17:14;102585.22;;;17.15;46.78
54588;BME280;40484;50.198;19.576;2023-05-03T18:22:15;102594.46;;;17.12;46.95
54588;BME280;40484;50.198;19.576;2023-05-03T18:27:17;102590.27;;;17.13;46.81
54588;BME280;40484;50.198;19.576;2023-05-03T18:32:19;102592.36;;;17.14;46.84
54588;BME280;40484;50.198;19.576;2023-05-03T18:37:20;102597.20;;;17.14;46.77
54588;BME280;40484;50.198;19.576;2023-05-03T18:42:21;102599.68;;;17.03;46.89
54588;BME280;40484;50.198;19.576;2023-05-03T18:47:23;102599.07;;;16.98;47.03
54588;BME280;40484;50.198;19.576;2023-05-03T18:52:24;102599.67;;;16.87;46.94
54588;BME280;40484;50.198;19.576;2023-05-03T18:57:26;102601.34;;;16.76;46.98
54588;BME280;40484;50.198;19.576;2023-05-03T19:02:27;102599.37;;;16.57;46.81
54588;BME280;40484;50.198;19.576;2023-05-03T19:07:30;102604.70;;;16.30;46.57
54588;BME280;40484;50.198;19.576;2023-05-03T19:12:32;102607.09;;;16.07;46.79
54588;BME280;40484;50.198;19.576;2023-05-03T19:17:33;102605.12;;;15.89;46.71
54588;BME280;40484;50.198;19.576;2023-05-03T19:22:35;102598.73;;;15.76;46.74
54588;BME280;40484;50.198;19.576;2023-05-03T19:27:36;102607.23;;;15.66;46.66
54588;BME280;40484;50.198;19.576;2023-05-03T19:32:38;102611.06;;;15.48;46.82
54588;BME280;40484;50.198;19.576;2023-05-03T19:38:04;102603.99;;;15.52;46.79
54588;BME280;40484;50.198;19.576;2023-05-03T19:43:06;102603.89;;;15.40;46.64
54588;BME280;40484;50.198;19.576;2023-05-03T19:48:07;102599.54;;;15.21;46.53
54588;BME280;40484;50.198;19.576;2023-05-03T19:53:10;102602.89;;;14.99;46.58
54588;BME280;40484;50.198;19.576;2023-05-03T19:58:12;102603.50;;;14.78;46.62
54588;BME280;40484;50.198;19.576;2023-05-03T20:03:14;102600.23;;;14.65;46.65
54588;BME280;40484;50.198;19.576;2023-05-03T20:08:15;102597.85;;;14.44;46.76
54588;BME280;40484;50.198;19.576;2023-05-03T20:13:17;102598.20;;;14.37;47.23
54588;BME280;40484;50.198;19.576;2023-05-03T20:18:19;102595.30;;;14.42;47.15
54588;BME280;40484;50.198;19.576;2023-05-03T20:23:20;102595.77;;;14.46;47.10
54588;BME280;40484;50.198;19.576;2023-05-03T20:28:22;102604.14;;;14.46;46.93
54588;BME280;40484;50.198;19.576;2023-05-03T20:33:23;102601.58;;;14.41;47.22
54588;BME280;40484;50.198;19.576;2023-05-03T20:38:25;102594.81;;;14.37;47.33
54588;BME280;40484;50.198;19.576;2023-05-03T20:43:26;102595.86;;;14.36;47.10
54588;BME280;40484;50.198;19.576;2023-05-03T20:48:28;102599.76;;;14.29;46.79
54588;BME280;40484;50.198;19.576;2023-05-03T20:53:29;102600.91;;;14.23;46.70
54588;BME280;40484;50.198;19.576;2023-05-03T20:58:31;102603.73;;;14.14;46.53
54588;BME280;40484;50.198;19.576;2023-05-03T21:03:33;102601.60;;;14.11;46.37
54588;BME280;40484;50.198;19.576;2023-05-03T21:08:34;102598.59;;;14.05;46.27
54588;BME280;40484;50.198;19.576;2023-05-03T21:13:36;102600.39;;;13.98;46.14
54588;BME280;40484;50.198;19.576;2023-05-03T21:18:38;102601.16;;;13.80;46.45
54588;BME280;40484;50.198;19.576;2023-05-03T21:23:39;102593.04;;;13.68;46.61
54588;BME280;40484;50.198;19.576;2023-05-03T21:29:05;102591.20;;;13.70;46.42
54588;BME280;40484;50.198;19.576;2023-05-03T21:34:07;102591.91;;;13.50;46.15
54588;BME280;40484;50.198;19.576;2023-05-03T21:39:08;102584.29;;;13.30;45.92
54588;BME280;40484;50.198;19.576;2023-05-03T21:44:10;102582.55;;;13.16;46.09
54588;BME280;40484;50.198;19.576;2023-05-03T21:49:12;102588.41;;;13.04;46.00
54588;BME280;40484;50.198;19.576;2023-05-03T21:54:14;102591.15;;;12.82;45.96
54588;BME280;40484;50.198;19.576;2023-05-03T21:59:17;102595.94;;;12.71;46.10
54588;BME280;40484;50.198;19.576;2023-05-03T22:04:18;102596.03;;;12.66;46.16
54588;BME280;40484;50.198;19.576;2023-05-03T22:09:20;102589.27;;;12.72;46.09
54588;BME280;40484;50.198;19.576;2023-05-03T22:14:22;102596.16;;;12.72;45.92
54588;BME280;40484;50.198;19.576;2023-05-03T22:19:23;102592.12;;;12.67;45.75
54588;BME280;40484;50.198;19.576;2023-05-03T22:24:25;102586.01;;;12.44;45.58
54588;BME280;40484;50.198;19.576;2023-05-03T22:29:28;102588.17;;;12.26;45.53
54588;BME280;40484;50.198;19.576;2023-05-03T22:34:30;102584.72;;;12.11;45.66
54588;BME280;40484;50.198;19.576;2023-05-03T22:39:31;102580.21;;;12.06;45.68
54588;BME280;40484;50.198;19.576;2023-05-03T22:44:32;102578.49;;;12.05;45.82
54588;BME280;40484;50.198;19.576;2023-05-03T22:49:34;102582.38;;;12.10;45.84
54588;BME280;40484;50.198;19.576;2023-05-03T22:54:35;102570.62;;;12.15;45.73
54588;BME280;40484;50.198;19.576;2023-05-03T22:59:37;102569.44;;;12.08;45.62
54588;BME280;40484;50.198;19.576;2023-05-03T23:04:38;102575.23;;;11.98;45.53
54588;BME280;40484;50.198;19.576;2023-05-03T23:09:40;102581.79;;;11.84;45.59
54588;BME280;40484;50.198;19.576;2023-05-03T23:15:10;102570.46;;;11.80;45.52
54588;BME280;40484;50.198;19.576;2023-05-03T23:20:12;102572.83;;;11.75;45.59
54588;BME280;40484;50.198;19.576;2023-05-03T23:25:13;102571.02;;;11.68;45.63
54588;BME280;40484;50.198;19.576;2023-05-03T23:30:16;102561.50;;;11.62;45.71
54588;BME280;40484;50.198;19.576;2023-05-03T23:35:18;102561.98;;;11.48;45.93
54588;BME280;40484;50.198;19.576;2023-05-03T23:40:20;102557.53;;;11.36;46.01
54588;BME280;40484;50.198;19.576;2023-05-03T23:45:22;102561.03;;;11.34;46.08
54588;BME280;40484;50.198;19.576;2023-05-03T23:50:23;102556.14;;;11.30;45.87
54588;BME280;40484;50.198;19.576;2023-05-03T23:55:25;102554.52;;;11.31;45.94
